sensor_id;sensor_type;location;lat;lon;timestamp;temperature;humidity
3648;DHT22;1840;48.892;15.312;2022-12-18T00:01:30;-6.20;95.30
3648;DHT22;1840;48.892;15.312;2022-12-18T00:04:00;-6.00;95.00
3648;DHT22;1840;48.892;15.312;2022-12-18T00:06:29;-6.10;94.90
3648;DHT22;1840;48.892;15.312;2022-12-18T00:08:58;-6.10;94.90
3648;DHT22;1840;48.892;15.312;2022-12-18T00:11:29;-6.30;94.60
3648;DHT22;1840;48.892;15.312;2022-12-18T00:13:59;-6.50;94.30
3648;DHT22;1840;48.892;15.312;2022-12-18T00:16:28;-6.90;93.70
3648;DHT22;1840;48.892;15.312;2022-12-18T00:19:00;-7.10;94.20
3648;DHT22;1840;48.892;15.312;2022-12-18T00:21:29;-7.30;94.10
3648;DHT22;1840;48.892;15.312;2022-12-18T00:23:57;-7.30;94.20
3648;DHT22;1840;48.892;15.312;2022-12-18T00:26:29;-7.20;94.30
3648;DHT22;1840;48.892;15.312;2022-12-18T00:28:58;-7.20;94.20
3648;DHT22;1840;48.892;15.312;2022-12-18T00:31:28;-7.20;94.00
3648;DHT22;1840;48.892;15.312;2022-12-18T00:33:57;-7.30;93.70
3648;DHT22;1840;48.892;15.312;2022-12-18T00:36:27;-7.50;93.60
3648;DHT22;1840;48.892;15.312;2022-12-18T00:38:56;-7.60;94.30
3648;DHT22;1840;48.892;15.312;2022-12-18T00:41:25;-7.80;94.20
3648;DHT22;1840;48.892;15.312;2022-12-18T00:44:14;-8.00;94.00
3648;DHT22;1840;48.892;15.312;2022-12-18T00:46:43;-8.20;94.10
3648;DHT22;1840;48.892;15.312;2022-12-18T00:49:12;-8.50;94.00
3648;DHT22;1840;48.892;15.312;2022-12-18T00:51:40;-8.60;93.80
3648;DHT22;1840;48.892;15.312;2022-12-18T00:54:08;-8.90;93.40
3648;DHT22;1840;48.892;15.312;2022-12-18T00:56:36;-9.30;93.70
3648;DHT22;1840;48.892;15.312;2022-12-18T00:59:16;-9.30;93.80
3648;DHT22;1840;48.892;15.312;2022-12-18T01:01:45;-9.60;93.60
3648;DHT22;1840;48.892;15.312;2022-12-18T01:04:14;-9.80;93.80
3648;DHT22;1840;48.892;15.312;2022-12-18T01:06:42;-9.90;93.70
3648;DHT22;1840;48.892;15.312;2022-12-18T01:09:10;-10.00;94.10
3648;DHT22;1840;48.892;15.312;2022-12-18T01:11:39;-10.00;93.50
3648;DHT22;1840;48.892;15.312;2022-12-18T01:14:07;-10.20;93.70
3648;DHT22;1840;48.892;15.312;2022-12-18T01:16:36;-10.20;93.70
3648;DHT22;1840;48.892;15.312;2022-12-18T01:19:05;-10.10;93.60
3648;DHT22;1840;48.892;15.312;2022-12-18T01:21:33;-10.00;93.50
3648;DHT22;1840;48.892;15.312;2022-12-18T01:24:01;-10.00;93.10
3648;DHT22;1840;48.892;15.312;2022-12-18T01:26:29;-10.20;93.00
3648;DHT22;1840;48.892;15.312;2022-12-18T01:28:57;-10.10;93.10
3648;DHT22;1840;48.892;15.312;2022-12-18T01:31:27;-10.00;93.00
3648;DHT22;1840;48.892;15.312;2022-12-18T01:33:59;-10.00;92.70
3648;DHT22;1840;48.892;15.312;2022-12-18T01:36:29;-10.20;92.60
3648;DHT22;1840;48.892;15.312;2022-12-18T01:38:59;-10.20;92.60
3648;DHT22;1840;48.892;15.312;2022-12-18T01:41:29;-10.10;92.40
3648;DHT22;1840;48.892;15.312;2022-12-18T01:47:33;-10.30;92.30
3648;DHT22;1840;48.892;15.312;2022-12-18T01:50:07;-10.40;92.30
3648;DHT22;1840;48.892;15.312;2022-12-18T01:52:36;-10.30;92.10
3648;DHT22;1840;48.892;15.312;2022-12-18T01:55:06;-10.60;92.40
3648;DHT22;1840;48.892;15.312;2022-12-18T01:57:35;-10.60;92.40
3648;DHT22;1840;48.892;15.312;2022-12-18T02:00:06;-10.70;92.30
3648;DHT22;1840;48.892;15.312;2022-12-18T02:02:35;-10.70;92.40
3648;DHT22;1840;48.892;15.312;2022-12-18T02:05:06;-10.70;92.10
3648;DHT22;1840;48.892;15.312;2022-12-18T02:07:40;-10.70;92.10
3648;DHT22;1840;48.892;15.312;2022-12-18T02:10:14;-10.80;92.00
3648;DHT22;1840;48.892;15.312;2022-12-18T02:12:48;-10.80;91.80
3648;DHT22;1840;48.892;15.312;2022-12-18T02:15:24;-10.90;91.80
3648;DHT22;1840;48.892;15.312;2022-12-18T02:17:55;-11.00;91.80
3648;DHT22;1840;48.892;15.312;2022-12-18T02:20:30;-11.20;91.40
3648;DHT22;1840;48.892;15.312;2022-12-18T02:23:17;-11.30;91.20
3648;DHT22;1840;48.892;15.312;2022-12-18T02:26:17;-11.70;91.20
3648;DHT22;1840;48.892;15.312;2022-12-18T02:28:52;-11.80;91.80
3648;DHT22;1840;48.892;15.312;2022-12-18T02:31:24;-11.70;91.80
3648;DHT22;1840;48.892;15.312;2022-12-18T02:33:55;-11.70;91.70
3648;DHT22;1840;48.892;15.312;2022-12-18T02:36:25;-11.70;91.50
3648;DHT22;1840;48.892;15.312;2022-12-18T02:38:55;-11.90;91.60
3648;DHT22;1840;48.892;15.312;2022-12-18T02:41:25;-11.90;91.70
3648;DHT22;1840;48.892;15.312;2022-12-18T02:43:58;-12.00;91.50
3648;DHT22;1840;48.892;15.312;2022-12-18T02:46:30;-12.10;91.60
3648;DHT22;1840;48.892;15.312;2022-12-18T02:49:06;-12.10;91.60
3648;DHT22;1840;48.892;15.312;2022-12-18T02:51:42;-12.20;91.40
3648;DHT22;1840;48.892;15.312;2022-12-18T02:54:20;-12.10;91.60
3648;DHT22;1840;48.892;15.312;2022-12-18T02:56:53;-12.40;91.10
3648;DHT22;1840;48.892;15.312;2022-12-18T02:59:28;-12.20;91.30
3648;DHT22;1840;48.892;15.312;2022-12-18T03:02:03;-12.10;91.10
3648;DHT22;1840;48.892;15.312;2022-12-18T03:04:39;-12.20;91.00
3648;DHT22;1840;48.892;15.312;2022-12-18T03:07:15;-12.60;91.30
3648;DHT22;1840;48.892;15.312;2022-12-18T03:09:47;-13.00;90.70
3648;DHT22;1840;48.892;15.312;2022-12-18T03:12:20;-13.00;91.40
3648;DHT22;1840;48.892;15.312;2022-12-18T03:14:55;-13.00;91.30
3648;DHT22;1840;48.892;15.312;2022-12-18T03:17:27;-12.80;91.20
3648;DHT22;1840;48.892;15.312;2022-12-18T03:20:00;-12.70;91.10
3648;DHT22;1840;48.892;15.312;2022-12-18T03:22:31;-12.90;91.10
3648;DHT22;1840;48.892;15.312;2022-12-18T03:25:03;-12.70;90.80
3648;DHT22;1840;48.892;15.312;2022-12-18T03:27:33;-12.90;90.40
3648;DHT22;1840;48.892;15.312;2022-12-18T03:30:05;-12.90;90.80
3648;DHT22;1840;48.892;15.312;2022-12-18T03:32:39;-12.90;90.70
3648;DHT22;1840;48.892;15.312;2022-12-18T03:35:11;-13.20;90.20
3648;DHT22;1840;48.892;15.312;2022-12-18T03:37:40;-13.40;90.50
3648;DHT22;1840;48.892;15.312;2022-12-18T03:40:09;-13.20;91.10
3648;DHT22;1840;48.892;15.312;2022-12-18T03:42:44;-13.20;90.70
3648;DHT22;1840;48.892;15.312;2022-12-18T03:45:20;-13.20;90.70
3648;DHT22;1840;48.892;15.312;2022-12-18T03:47:57;-13.10;90.90
3648;DHT22;1840;48.892;15.312;2022-12-18T03:50:34;-13.10;90.70
3648;DHT22;1840;48.892;15.312;2022-12-18T03:53:12;-13.40;90.30
3648;DHT22;1840;48.892;15.312;2022-12-18T03:55:42;-13.30;90.60
3648;DHT22;1840;48.892;15.312;2022-12-18T03:58:14;-13.30;90.40
3648;DHT22;1840;48.892;15.312;2022-12-18T04:00:44;-13.50;90.50
3648;DHT22;1840;48.892;15.312;2022-12-18T04:03:13;-13.70;90.50
3648;DHT22;1840;48.892;15.312;2022-12-18T04:05:43;-13.90;90.70
3648;DHT22;1840;48.892;15.312;2022-12-18T04:08:12;-13.90;90.70
3648;DHT22;1840;48.892;15.312;2022-12-18T04:10:40;-13.80;90.90
3648;DHT22;1840;48.892;15.312;2022-12-18T04:13:09;-13.70;90.70
3648;DHT22;1840;48.892;15.312;2022-12-18T04:15:38;-13.70;90.90
3648;DHT22;1840;48.892;15.312;2022-12-18T04:18:07;-13.80;90.50
3648;DHT22;1840;48.892;15.312;2022-12-18T04:20:35;-13.50;91.00
3648;DHT22;1840;48.892;15.312;2022-12-18T04:23:03;-13.50;90.70
3648;DHT22;1840;48.892;15.312;2022-12-18T04:25:31;-13.50;90.70
3648;DHT22;1840;48.892;15.312;2022-12-18T04:27:59;-13.60;90.80
3648;DHT22;1840;48.892;15.312;2022-12-18T04:30:27;-13.40;91.00
3648;DHT22;1840;48.892;15.312;2022-12-18T04:32:56;-13.30;91.00
3648;DHT22;1840;48.892;15.312;2022-12-18T04:35:24;-13.30;90.70
3648;DHT22;1840;48.892;15.312;2022-12-18T04:37:52;-13.30;90.80
3648;DHT22;1840;48.892;15.312;2022-12-18T04:40:20;-13.40;90.80
3648;DHT22;1840;48.892;15.312;2022-12-18T04:42:48;-13.30;90.80
3648;DHT22;1840;48.892;15.312;2022-12-18T04:45:16;-13.50;90.20
3648;DHT22;1840;48.892;15.312;2022-12-18T04:47:44;-13.60;90.70
3648;DHT22;1840;48.892;15.312;2022-12-18T04:50:14;-13.40;90.80
3648;DHT22;1840;48.892;15.312;2022-12-18T04:52:42;-13.40;90.40
3648;DHT22;1840;48.892;15.312;2022-12-18T04:55:10;-13.70;90.00
3648;DHT22;1840;48.892;15.312;2022-12-18T04:57:38;-13.80;90.00
3648;DHT22;1840;48.892;15.312;2022-12-18T05:00:07;-13.80;90.10
3648;DHT22;1840;48.892;15.312;2022-12-18T05:02:36;-14.10;89.70
3648;DHT22;1840;48.892;15.312;2022-12-18T05:05:04;-14.10;90.20
3648;DHT22;1840;48.892;15.312;2022-12-18T05:07:34;-14.00;90.30
3648;DHT22;1840;48.892;15.312;2022-12-18T05:10:02;-14.00;90.50
3648;DHT22;1840;48.892;15.312;2022-12-18T05:12:31;-13.90;90.60
3648;DHT22;1840;48.892;15.312;2022-12-18T05:15:00;-13.80;90.60
3648;DHT22;1840;48.892;15.312;2022-12-18T05:17:31;-13.90;90.50
3648;DHT22;1840;48.892;15.312;2022-12-18T05:19:59;-13.90;90.70
3648;DHT22;1840;48.892;15.312;2022-12-18T05:22:27;-13.80;90.70
3648;DHT22;1840;48.892;15.312;2022-12-18T05:24:56;-13.70;90.50
3648;DHT22;1840;48.892;15.312;2022-12-18T05:27:24;-13.70;90.50
3648;DHT22;1840;48.892;15.312;2022-12-18T05:29:52;-13.80;90.30
3648;DHT22;1840;48.892;15.312;2022-12-18T05:32:20;-13.80;90.10
3648;DHT22;1840;48.892;15.312;2022-12-18T05:34:48;-13.80;90.10
3648;DHT22;1840;48.892;15.312;2022-12-18T05:37:16;-14.00;89.80
3648;DHT22;1840;48.892;15.312;2022-12-18T05:39:44;-14.00;90.00
3648;DHT22;1840;48.892;15.312;2022-12-18T05:42:14;-14.20;89.60
3648;DHT22;1840;48.892;15.312;2022-12-18T05:44:42;-14.20;89.80
3648;DHT22;1840;48.892;15.312;2022-12-18T05:47:11;-14.40;89.50
3648;DHT22;1840;48.892;15.312;2022-12-18T05:49:39;-14.30;90.40
3648;DHT22;1840;48.892;15.312;2022-12-18T05:52:07;-14.20;90.20
3648;DHT22;1840;48.892;15.312;2022-12-18T05:54:35;-14.30;89.90
3648;DHT22;1840;48.892;15.312;2022-12-18T05:57:03;-14.20;90.20
3648;DHT22;1840;48.892;15.312;2022-12-18T05:59:32;-14.10;90.40
3648;DHT22;1840;48.892;15.312;2022-12-18T06:02:00;-14.00;90.40
3648;DHT22;1840;48.892;15.312;2022-12-18T06:04:29;-13.70;90.60
3648;DHT22;1840;48.892;15.312;2022-12-18T06:06:57;-13.50;90.60
3648;DHT22;1840;48.892;15.312;2022-12-18T06:09:25;-13.40;90.50
3648;DHT22;1840;48.892;15.312;2022-12-18T06:11:53;-13.30;90.60
3648;DHT22;1840;48.892;15.312;2022-12-18T06:14:21;-13.20;90.60
3648;DHT22;1840;48.892;15.312;2022-12-18T06:16:51;-13.20;90.40
3648;DHT22;1840;48.892;15.312;2022-12-18T06:19:19;-13.40;90.30
3648;DHT22;1840;48.892;15.312;2022-12-18T06:21:47;-13.50;90.50
3648;DHT22;1840;48.892;15.312;2022-12-18T06:24:15;-13.40;91.00
3648;DHT22;1840;48.892;15.312;2022-12-18T06:26:44;-13.30;91.00
3648;DHT22;1840;48.892;15.312;2022-12-18T06:29:12;-13.40;90.80
3648;DHT22;1840;48.892;15.312;2022-12-18T06:31:39;-13.50;90.90
3648;DHT22;1840;48.892;15.312;2022-12-18T06:34:09;-13.40;91.10
3648;DHT22;1840;48.892;15.312;2022-12-18T06:36:37;-13.20;91.20
3648;DHT22;1840;48.892;15.312;2022-12-18T06:39:05;-13.10;90.90
3648;DHT22;1840;48.892;15.312;2022-12-18T06:41:33;-13.20;90.90
3648;DHT22;1840;48.892;15.312;2022-12-18T06:44:01;-13.40;90.80
3648;DHT22;1840;48.892;15.312;2022-12-18T06:46:29;-13.30;91.40
3648;DHT22;1840;48.892;15.312;2022-12-18T06:48:58;-13.20;91.30
3648;DHT22;1840;48.892;15.312;2022-12-18T06:51:28;-13.20;91.30
3648;DHT22;1840;48.892;15.312;2022-12-18T06:53:56;-13.30;91.00
3648;DHT22;1840;48.892;15.312;2022-12-18T06:56:24;-13.30;91.10
3648;DHT22;1840;48.892;15.312;2022-12-18T06:58:52;-13.40;90.90
3648;DHT22;1840;48.892;15.312;2022-12-18T07:01:20;-13.40;91.20
3648;DHT22;1840;48.892;15.312;2022-12-18T07:03:51;-13.30;91.40
3648;DHT22;1840;48.892;15.312;2022-12-18T07:06:22;-13.30;91.30
3648;DHT22;1840;48.892;15.312;2022-12-18T07:08:53;-13.10;91.60
3648;DHT22;1840;48.892;15.312;2022-12-18T07:11:21;-13.10;91.30
3648;DHT22;1840;48.892;15.312;2022-12-18T07:13:49;-13.00;91.30
3648;DHT22;1840;48.892;15.312;2022-12-18T07:16:19;-13.00;91.30
3648;DHT22;1840;48.892;15.312;2022-12-18T07:18:51;-12.80;91.60
3648;DHT22;1840;48.892;15.312;2022-12-18T07:21:19;-12.80;91.50
3648;DHT22;1840;48.892;15.312;2022-12-18T07:23:47;-12.80;91.50
3648;DHT22;1840;48.892;15.312;2022-12-18T07:26:18;-12.80;91.30
3648;DHT22;1840;48.892;15.312;2022-12-18T07:28:46;-12.80;91.60
3648;DHT22;1840;48.892;15.312;2022-12-18T07:31:17;-12.70;91.90
3648;DHT22;1840;48.892;15.312;2022-12-18T07:33:47;-12.60;92.00
3648;DHT22;1840;48.892;15.312;2022-12-18T07:36:16;-12.40;92.10
3648;DHT22;1840;48.892;15.312;2022-12-18T07:38:46;-12.40;91.80
3648;DHT22;1840;48.892;15.312;2022-12-18T07:41:16;-12.20;92.10
3648;DHT22;1840;48.892;15.312;2022-12-18T07:43:45;-12.20;91.60
3648;DHT22;1840;48.892;15.312;2022-12-18T07:46:14;-12.10;92.00
3648;DHT22;1840;48.892;15.312;2022-12-18T07:48:43;-12.00;92.10
3648;DHT22;1840;48.892;15.312;2022-12-18T07:51:16;-12.20;91.80
3648;DHT22;1840;48.892;15.312;2022-12-18T07:53:44;-12.00;92.20
3648;DHT22;1840;48.892;15.312;2022-12-18T07:56:19;-11.80;92.50
3648;DHT22;1840;48.892;15.312;2022-12-18T07:58:57;-11.70;92.30
3648;DHT22;1840;48.892;15.312;2022-12-18T08:01:25;-11.90;92.10
3648;DHT22;1840;48.892;15.312;2022-12-18T08:03:54;-11.70;92.20
3648;DHT22;1840;48.892;15.312;2022-12-18T08:06:22;-11.80;92.20
3648;DHT22;1840;48.892;15.312;2022-12-18T08:08:51;-11.80;92.50
3648;DHT22;1840;48.892;15.312;2022-12-18T08:11:22;-11.50;92.90
3648;DHT22;1840;48.892;15.312;2022-12-18T08:13:50;-11.70;92.20
3648;DHT22;1840;48.892;15.312;2022-12-18T08:16:18;-11.90;91.90
3648;DHT22;1840;48.892;15.312;2022-12-18T08:18:47;-12.00;92.10
3648;DHT22;1840;48.892;15.312;2022-12-18T08:21:18;-11.50;93.10
3648;DHT22;1840;48.892;15.312;2022-12-18T08:23:48;-11.50;92.50
3648;DHT22;1840;48.892;15.312;2022-12-18T08:26:18;-11.50;92.90
3648;DHT22;1840;48.892;15.312;2022-12-18T08:28:48;-11.50;93.00
3648;DHT22;1840;48.892;15.312;2022-12-18T08:31:17;-11.20;92.70
3648;DHT22;1840;48.892;15.312;2022-12-18T08:33:48;-11.10;92.40
3648;DHT22;1840;48.892;15.312;2022-12-18T08:36:17;-11.20;92.50
3648;DHT22;1840;48.892;15.312;2022-12-18T08:38:46;-11.10;92.50
3648;DHT22;1840;48.892;15.312;2022-12-18T08:41:15;-10.90;92.60
3648;DHT22;1840;48.892;15.312;2022-12-18T08:43:43;-10.80;92.50
3648;DHT22;1840;48.892;15.312;2022-12-18T08:46:35;-10.80;92.30
3648;DHT22;1840;48.892;15.312;2022-12-18T08:49:03;-10.80;92.30
3648;DHT22;1840;48.892;15.312;2022-12-18T08:51:32;-10.70;92.60
3648;DHT22;1840;48.892;15.312;2022-12-18T08:54:00;-10.60;92.70
3648;DHT22;1840;48.892;15.312;2022-12-18T08:56:29;-10.60;92.90
3648;DHT22;1840;48.892;15.312;2022-12-18T08:58:57;-10.80;92.20
3648;DHT22;1840;48.892;15.312;2022-12-18T09:01:25;-10.60;93.00
3648;DHT22;1840;48.892;15.312;2022-12-18T09:03:55;-10.40;92.90
3648;DHT22;1840;48.892;15.312;2022-12-18T09:06:23;-10.40;92.60
3648;DHT22;1840;48.892;15.312;2022-12-18T09:08:53;-10.60;92.50
3648;DHT22;1840;48.892;15.312;2022-12-18T09:11:22;-10.50;92.90
3648;DHT22;1840;48.892;15.312;2022-12-18T09:13:51;-10.50;92.80
3648;DHT22;1840;48.892;15.312;2022-12-18T09:16:19;-10.50;92.70
3648;DHT22;1840;48.892;15.312;2022-12-18T09:18:50;-10.50;92.90
3648;DHT22;1840;48.892;15.312;2022-12-18T09:21:21;-10.40;93.00
3648;DHT22;1840;48.892;15.312;2022-12-18T09:23:50;-10.30;93.30
3648;DHT22;1840;48.892;15.312;2022-12-18T09:26:18;-9.80;93.50
3648;DHT22;1840;48.892;15.312;2022-12-18T09:28:46;-9.70;93.10
3648;DHT22;1840;48.892;15.312;2022-12-18T09:31:14;-9.60;93.20
3648;DHT22;1840;48.892;15.312;2022-12-18T09:33:43;-9.60;92.70
3648;DHT22;1840;48.892;15.312;2022-12-18T09:36:13;-9.70;92.90
3648;DHT22;1840;48.892;15.312;2022-12-18T09:38:43;-9.60;93.10
3648;DHT22;1840;48.892;15.312;2022-12-18T09:41:25;-9.50;93.30
3648;DHT22;1840;48.892;15.312;2022-12-18T09:44:01;-9.50;93.00
3648;DHT22;1840;48.892;15.312;2022-12-18T09:46:32;-9.40;93.40
3648;DHT22;1840;48.892;15.312;2022-12-18T09:49:04;-9.30;93.30
3648;DHT22;1840;48.892;15.312;2022-12-18T09:51:39;-9.20;93.30
3648;DHT22;1840;48.892;15.312;2022-12-18T09:54:14;-9.10;93.60
3648;DHT22;1840;48.892;15.312;2022-12-18T09:56:44;-9.00;93.80
3648;DHT22;1840;48.892;15.312;2022-12-18T09:59:20;-8.80;93.60
3648;DHT22;1840;48.892;15.312;2022-12-18T10:01:49;-8.80;93.50
3648;DHT22;1840;48.892;15.312;2022-12-18T10:04:18;-8.80;93.60
3648;DHT22;1840;48.892;15.312;2022-12-18T10:06:51;-8.70;94.00
3648;DHT22;1840;48.892;15.312;2022-12-18T10:09:27;-8.50;94.10
3648;DHT22;1840;48.892;15.312;2022-12-18T10:12:04;-8.50;94.00
3648;DHT22;1840;48.892;15.312;2022-12-18T10:14:40;-8.20;94.20
3648;DHT22;1840;48.892;15.312;2022-12-18T10:17:18;-8.00;94.00
3648;DHT22;1840;48.892;15.312;2022-12-18T10:19:53;-7.80;94.20
3648;DHT22;1840;48.892;15.312;2022-12-18T10:22:30;-7.80;93.70
3648;DHT22;1840;48.892;15.312;2022-12-18T10:25:13;-7.80;94.40
3648;DHT22;1840;48.892;15.312;2022-12-18T10:27:43;-7.60;94.50
3648;DHT22;1840;48.892;15.312;2022-12-18T10:30:13;-7.40;94.90
3648;DHT22;1840;48.892;15.312;2022-12-18T10:32:42;-7.00;94.90
3648;DHT22;1840;48.892;15.312;2022-12-18T10:35:16;-6.90;95.40
3648;DHT22;1840;48.892;15.312;2022-12-18T10:38:06;-6.90;94.70
3648;DHT22;1840;48.892;15.312;2022-12-18T10:40:49;-6.80;95.30
3648;DHT22;1840;48.892;15.312;2022-12-18T10:43:21;-6.60;95.40
3648;DHT22;1840;48.892;15.312;2022-12-18T10:46:00;-6.80;95.10
3648;DHT22;1840;48.892;15.312;2022-12-18T10:48:28;-6.60;95.60
3648;DHT22;1840;48.892;15.312;2022-12-18T10:50:57;-6.50;95.00
3648;DHT22;1840;48.892;15.312;2022-12-18T10:53:42;-6.50;95.20
3648;DHT22;1840;48.892;15.312;2022-12-18T10:56:12;-6.30;95.10
3648;DHT22;1840;48.892;15.312;2022-12-18T10:58:40;-6.20;95.00
3648;DHT22;1840;48.892;15.312;2022-12-18T11:01:10;-6.40;94.80
3648;DHT22;1840;48.892;15.312;2022-12-18T11:03:40;-6.30;94.70
3648;DHT22;1840;48.892;15.312;2022-12-18T11:06:10;-6.20;95.20
3648;DHT22;1840;48.892;15.312;2022-12-18T11:08:39;-6.20;94.70
3648;DHT22;1840;48.892;15.312;2022-12-18T11:11:17;-6.20;94.80
3648;DHT22;1840;48.892;15.312;2022-12-18T11:13:56;-6.10;95.20
3648;DHT22;1840;48.892;15.312;2022-12-18T11:16:26;-6.10;95.00
3648;DHT22;1840;48.892;15.312;2022-12-18T11:19:09;-5.90;94.90
3648;DHT22;1840;48.892;15.312;2022-12-18T11:21:39;-5.90;94.80
3648;DHT22;1840;48.892;15.312;2022-12-18T11:24:18;-5.90;94.50
3648;DHT22;1840;48.892;15.312;2022-12-18T11:26:49;-5.80;94.90
3648;DHT22;1840;48.892;15.312;2022-12-18T11:29:33;-5.90;94.30
3648;DHT22;1840;48.892;15.312;2022-12-18T11:32:33;-5.90;94.70
3648;DHT22;1840;48.892;15.312;2022-12-18T11:35:15;-5.90;94.90
3648;DHT22;1840;48.892;15.312;2022-12-18T11:37:48;-6.10;94.40
3648;DHT22;1840;48.892;15.312;2022-12-18T11:40:22;-6.20;94.30
3648;DHT22;1840;48.892;15.312;2022-12-18T11:43:00;-6.50;94.70
3648;DHT22;1840;48.892;15.312;2022-12-18T11:45:34;-6.70;94.80
3648;DHT22;1840;48.892;15.312;2022-12-18T11:48:08;-6.60;95.50
3648;DHT22;1840;48.892;15.312;2022-12-18T11:50:49;-6.50;96.00
3648;DHT22;1840;48.892;15.312;2022-12-18T11:53:18;-6.20;95.70
3648;DHT22;1840;48.892;15.312;2022-12-18T11:56:02;-6.00;95.50
3648;DHT22;1840;48.892;15.312;2022-12-18T11:58:42;-6.10;94.90
3648;DHT22;1840;48.892;15.312;2022-12-18T12:01:24;-6.10;95.40
3648;DHT22;1840;48.892;15.312;2022-12-18T12:04:08;-5.80;95.40
3648;DHT22;1840;48.892;15.312;2022-12-18T12:06:46;-6.00;95.30
3648;DHT22;1840;48.892;15.312;2022-12-18T12:09:24;-5.80;95.10
3648;DHT22;1840;48.892;15.312;2022-12-18T12:12:06;-5.90;95.00
3648;DHT22;1840;48.892;15.312;2022-12-18T12:14:46;-5.80;95.10
3648;DHT22;1840;48.892;15.312;2022-12-18T12:17:22;-5.80;94.90
3648;DHT22;1840;48.892;15.312;2022-12-18T12:19:58;-5.70;94.80
3648;DHT22;1840;48.892;15.312;2022-12-18T12:22:36;-6.00;94.00
3648;DHT22;1840;48.892;15.312;2022-12-18T12:25:21;-6.10;95.10
3648;DHT22;1840;48.892;15.312;2022-12-18T12:28:02;-6.00;95.10
3648;DHT22;1840;48.892;15.312;2022-12-18T12:30:46;-5.90;95.20
3648;DHT22;1840;48.892;15.312;2022-12-18T12:33:27;-5.80;94.90
3648;DHT22;1840;48.892;15.312;2022-12-18T12:36:03;-5.80;95.20
3648;DHT22;1840;48.892;15.312;2022-12-18T12:38:37;-5.80;94.90
3648;DHT22;1840;48.892;15.312;2022-12-18T12:41:18;-5.90;94.70
3648;DHT22;1840;48.892;15.312;2022-12-18T12:44:07;-5.80;95.00
3648;DHT22;1840;48.892;15.312;2022-12-18T12:46:40;-5.90;95.10
3648;DHT22;1840;48.892;15.312;2022-12-18T12:49:11;-5.80;95.20
3648;DHT22;1840;48.892;15.312;2022-12-18T12:51:44;-5.70;94.70
3648;DHT22;1840;48.892;15.312;2022-12-18T12:54:16;-5.90;94.40
3648;DHT22;1840;48.892;15.312;2022-12-18T12:56:49;-6.20;94.40
3648;DHT22;1840;48.892;15.312;2022-12-18T12:59:23;-6.30;95.00
3648;DHT22;1840;48.892;15.312;2022-12-18T13:01:59;-6.40;95.10
3648;DHT22;1840;48.892;15.312;2022-12-18T13:04:35;-6.20;95.20
3648;DHT22;1840;48.892;15.312;2022-12-18T13:07:09;-6.30;95.00
3648;DHT22;1840;48.892;15.312;2022-12-18T13:12:52;-6.40;95.00
3648;DHT22;1840;48.892;15.312;2022-12-18T13:15:37;-6.20;95.00
3648;DHT22;1840;48.892;15.312;2022-12-18T13:18:17;-6.20;94.90
3648;DHT22;1840;48.892;15.312;2022-12-18T13:20:49;-6.20;94.70
3648;DHT22;1840;48.892;15.312;2022-12-18T13:23:33;-6.20;95.00
3648;DHT22;1840;48.892;15.312;2022-12-18T13:26:29;-6.20;94.50
3648;DHT22;1840;48.892;15.312;2022-12-18T13:28:58;-6.30;94.80
3648;DHT22;1840;48.892;15.312;2022-12-18T13:34:42;-6.60;94.70
3648;DHT22;1840;48.892;15.312;2022-12-18T13:43:33;-6.50;94.90
3648;DHT22;1840;48.892;15.312;2022-12-18T13:46:19;-6.60;94.80
3648;DHT22;1840;48.892;15.312;2022-12-18T13:48:57;-6.60;94.80
3648;DHT22;1840;48.892;15.312;2022-12-18T13:51:27;-6.60;94.90
3648;DHT22;1840;48.892;15.312;2022-12-18T13:53:58;-6.60;94.70
3648;DHT22;1840;48.892;15.312;2022-12-18T13:56:30;-6.60;95.10
3648;DHT22;1840;48.892;15.312;2022-12-18T13:59:17;-6.70;95.10
3648;DHT22;1840;48.892;15.312;2022-12-18T14:01:53;-6.70;95.00
3648;DHT22;1840;48.892;15.312;2022-12-18T14:04:25;-6.70;94.80
3648;DHT22;1840;48.892;15.312;2022-12-18T14:06:58;-6.60;95.00
3648;DHT22;1840;48.892;15.312;2022-12-18T14:09:31;-6.80;94.90
3648;DHT22;1840;48.892;15.312;2022-12-18T14:12:03;-6.80;95.20
3648;DHT22;1840;48.892;15.312;2022-12-18T14:14:52;-6.70;94.90
3648;DHT22;1840;48.892;15.312;2022-12-18T14:17:22;-7.20;94.80
3648;DHT22;1840;48.892;15.312;2022-12-18T14:19:51;-7.40;95.40
3648;DHT22;1840;48.892;15.312;2022-12-18T14:22:23;-7.30;95.80
3648;DHT22;1840;48.892;15.312;2022-12-18T14:25:13;-7.20;95.80
3648;DHT22;1840;48.892;15.312;2022-12-18T14:27:43;-7.00;95.60
3648;DHT22;1840;48.892;15.312;2022-12-18T14:30:25;-7.10;95.00
3648;DHT22;1840;48.892;15.312;2022-12-18T14:33:01;-7.00;95.10
3648;DHT22;1840;48.892;15.312;2022-12-18T14:35:29;-7.00;95.10
3648;DHT22;1840;48.892;15.312;2022-12-18T14:38:18;-7.10;94.70
3648;DHT22;1840;48.892;15.312;2022-12-18T14:40:47;-7.10;94.90
3648;DHT22;1840;48.892;15.312;2022-12-18T14:43:15;-7.10;94.80
3648;DHT22;1840;48.892;15.312;2022-12-18T14:45:44;-7.20;94.70
3648;DHT22;1840;48.892;15.312;2022-12-18T14:48:16;-7.30;95.10
3648;DHT22;1840;48.892;15.312;2022-12-18T14:50:58;-7.30;95.00
3648;DHT22;1840;48.892;15.312;2022-12-18T14:53:34;-7.30;94.70
3648;DHT22;1840;48.892;15.312;2022-12-18T14:56:03;-7.30;95.20
3648;DHT22;1840;48.892;15.312;2022-12-18T14:58:31;-7.20;95.00
3648;DHT22;1840;48.892;15.312;2022-12-18T15:01:00;-7.20;95.10
3648;DHT22;1840;48.892;15.312;2022-12-18T15:03:28;-7.10;94.90
3648;DHT22;1840;48.892;15.312;2022-12-18T15:05:56;-7.20;95.10
3648;DHT22;1840;48.892;15.312;2022-12-18T15:08:44;-7.20;94.80
3648;DHT22;1840;48.892;15.312;2022-12-18T15:11:30;-7.30;94.70
3648;DHT22;1840;48.892;15.312;2022-12-18T15:14:03;-7.40;95.00
3648;DHT22;1840;48.892;15.312;2022-12-18T15:16:51;-7.40;95.10
3648;DHT22;1840;48.892;15.312;2022-12-18T15:19:21;-7.60;94.80
3648;DHT22;1840;48.892;15.312;2022-12-18T15:21:50;-7.90;95.00
3648;DHT22;1840;48.892;15.312;2022-12-18T15:24:23;-7.80;96.00
3648;DHT22;1840;48.892;15.312;2022-12-18T15:26:52;-7.80;95.60
3648;DHT22;1840;48.892;15.312;2022-12-18T15:29:21;-7.70;95.70
3648;DHT22;1840;48.892;15.312;2022-12-18T15:32:01;-7.70;95.80
3648;DHT22;1840;48.892;15.312;2022-12-18T15:34:29;-7.50;95.60
3648;DHT22;1840;48.892;15.312;2022-12-18T15:36:57;-7.40;95.30
3648;DHT22;1840;48.892;15.312;2022-12-18T15:39:27;-7.50;95.40
3648;DHT22;1840;48.892;15.312;2022-12-18T15:41:54;-7.50;95.40
3648;DHT22;1840;48.892;15.312;2022-12-18T15:44:40;-7.60;95.60
3648;DHT22;1840;48.892;15.312;2022-12-18T15:47:11;-7.50;95.60
3648;DHT22;1840;48.892;15.312;2022-12-18T15:49:39;-7.40;95.50
3648;DHT22;1840;48.892;15.312;2022-12-18T15:52:11;-7.40;95.40
3648;DHT22;1840;48.892;15.312;2022-12-18T15:54:41;-7.60;95.20
3648;DHT22;1840;48.892;15.312;2022-12-18T15:57:26;-7.70;95.30
3648;DHT22;1840;48.892;15.312;2022-12-18T15:59:55;-7.70;95.90
3648;DHT22;1840;48.892;15.312;2022-12-18T16:02:25;-7.60;95.60
3648;DHT22;1840;48.892;15.312;2022-12-18T16:04:54;-7.60;95.60
3648;DHT22;1840;48.892;15.312;2022-12-18T16:07:23;-7.90;95.90
3648;DHT22;1840;48.892;15.312;2022-12-18T16:09:57;-8.30;96.10
3648;DHT22;1840;48.892;15.312;2022-12-18T16:12:28;-8.40;96.80
3648;DHT22;1840;48.892;15.312;2022-12-18T16:14:56;-8.60;96.80
3648;DHT22;1840;48.892;15.312;2022-12-18T16:17:24;-8.60;97.40
3648;DHT22;1840;48.892;15.312;2022-12-18T16:19:52;-8.40;97.40
3648;DHT22;1840;48.892;15.312;2022-12-18T16:22:23;-8.40;97.10
3648;DHT22;1840;48.892;15.312;2022-12-18T16:24:52;-8.10;97.30